sensor_id;sensor_type;location;lat;lon;timestamp;temperature;humidity
15676;DHT22;7938;47.666;9.434;2023-03-23T05:02:13;9.10;99.90
15676;DHT22;7938;47.666;9.434;2023-03-23T05:04:44;9.20;99.90
15676;DHT22;7938;47.666;9.434;2023-03-23T05:07:11;9.10;99.90
15676;DHT22;7938;47.666;9.434;2023-03-23T05:09:38;9.10;99.90
15676;DHT22;7938;47.666;9.434;2023-03-23T05:12:06;9.00;99.90
15676;DHT22;7938;47.666;9.434;2023-03-23T05:14:33;9.10;99.90
15676;DHT22;7938;47.666;9.434;2023-03-23T05:17:00;9.20;99.90
15676;DHT22;7938;47.666;9.434;2023-03-23T05:19:29;9.10;99.90
15676;DHT22;7938;47.666;9.434;2023-03-23T05:21:57;9.10;99.90
15676;DHT22;7938;47.666;9.434;2023-03-23T05:24:29;9.10;99.90
15676;DHT22;7938;47.666;9.434;2023-03-23T05:26:58;9.30;99.90
15676;DHT22;7938;47.666;9.434;2023-03-23T05:29:25;9.20;99.90
15676;DHT22;7938;47.666;9.434;2023-03-23T05:31:52;9.30;99.90
15676;DHT22;7938;47.666;9.434;2023-03-23T05:34:21;9.30;99.90
15676;DHT22;7938;47.666;9.434;2023-03-23T05:36:49;9.20;99.90
15676;DHT22;7938;47.666;9.434;2023-03-23T05:39:18;9.40;99.90
15676;DHT22;7938;47.666;9.434;2023-03-23T05:41:45;9.30;99.90
15676;DHT22;7938;47.666;9.434;2023-03-23T05:44:12;9.20;99.90
15676;DHT22;7938;47.666;9.434;2023-03-23T05:46:40;9.20;99.90
15676;DHT22;7938;47.666;9.434;2023-03-23T05:49:07;9.20;99.90
15676;DHT22;7938;47.666;9.434;2023-03-23T05:51:34;9.20;99.90
15676;DHT22;7938;47.666;9.434;2023-03-23T05:54:03;9.20;99.90
15676;DHT22;7938;47.666;9.434;2023-03-23T05:56:30;9.10;99.90
15676;DHT22;7938;47.666;9.434;2023-03-23T05:58:57;9.10;99.90
15676;DHT22;7938;47.666;9.434;2023-03-23T06:01:24;9.20;99.90
15676;DHT22;7938;47.666;9.434;2023-03-23T06:03:51;9.20;99.90
15676;DHT22;7938;47.666;9.434;2023-03-23T06:06:19;9.50;99.90
15676;DHT22;7938;47.666;9.434;2023-03-23T06:08:46;9.50;99.90
15676;DHT22;7938;47.666;9.434;2023-03-23T06:13:42;9.60;99.90
15676;DHT22;7938;47.666;9.434;2023-03-23T06:16:09;9.50;99.90
15676;DHT22;7938;47.666;9.434;2023-03-23T06:18:36;9.60;99.90
15676;DHT22;7938;47.666;9.434;2023-03-23T06:21:06;9.50;99.90
15676;DHT22;7938;47.666;9.434;2023-03-23T06:23:34;9.50;99.90
15676;DHT22;7938;47.666;9.434;2023-03-23T06:26:04;9.50;99.90
15676;DHT22;7938;47.666;9.434;2023-03-23T06:28:33;9.60;99.90
15676;DHT22;7938;47.666;9.434;2023-03-23T06:31:01;9.60;99.90
15676;DHT22;7938;47.666;9.434;2023-03-23T06:33:30;9.60;99.90
15676;DHT22;7938;47.666;9.434;2023-03-23T06:35:57;9.60;99.90
15676;DHT22;7938;47.666;9.434;2023-03-23T06:38:24;9.70;99.90
15676;DHT22;7938;47.666;9.434;2023-03-23T06:40:51;9.60;99.90
15676;DHT22;7938;47.666;9.434;2023-03-23T06:43:18;9.60;99.90
15676;DHT22;7938;47.666;9.434;2023-03-23T06:45:47;9.60;99.90
15676;DHT22;7938;47.666;9.434;2023-03-23T06:48:14;9.70;99.90
15676;DHT22;7938;47.666;9.434;2023-03-23T06:50:43;9.70;99.90
15676;DHT22;7938;47.666;9.434;2023-03-23T06:55:38;9.70;99.90
15676;DHT22;7938;47.666;9.434;2023-03-23T06:58:06;9.70;99.90
15676;DHT22;7938;47.666;9.434;2023-03-23T07:00:33;10.00;99.90
15676;DHT22;7938;47.666;9.434;2023-03-23T07:03:02;9.80;99.90
15676;DHT22;7938;47.666;9.434;2023-03-23T07:05:29;9.90;99.90
15676;DHT22;7938;47.666;9.434;2023-03-23T07:07:56;10.00;99.90
15676;DHT22;7938;47.666;9.434;2023-03-23T07:10:23;10.50;99.90
15676;DHT22;7938;47.666;9.434;2023-03-23T07:12:50;10.30;99.90
15676;DHT22;7938;47.666;9.434;2023-03-23T07:15:17;10.40;99.90
15676;DHT22;7938;47.666;9.434;2023-03-23T07:17:44;10.60;99.90
15676;DHT22;7938;47.666;9.434;2023-03-23T07:20:13;10.80;99.90
15676;DHT22;7938;47.666;9.434;2023-03-23T07:22:40;11.10;99.90
15676;DHT22;7938;47.666;9.434;2023-03-23T07:25:10;11.20;99.90
15676;DHT22;7938;47.666;9.434;2023-03-23T07:27:37;11.40;99.90
15676;DHT22;7938;47.666;9.434;2023-03-23T07:30:05;11.50;99.90
15676;DHT22;7938;47.666;9.434;2023-03-23T07:32:32;11.70;99.90
15676;DHT22;7938;47.666;9.434;2023-03-23T07:35:00;11.90;99.90
15676;DHT22;7938;47.666;9.434;2023-03-23T07:37:28;12.00;99.90
15676;DHT22;7938;47.666;9.434;2023-03-23T07:39:55;12.20;99.90
15676;DHT22;7938;47.666;9.434;2023-03-23T07:42:22;12.40;99.90
15676;DHT22;7938;47.666;9.434;2023-03-23T07:44:50;12.60;99.90
15676;DHT22;7938;47.666;9.434;2023-03-23T07:47:16;12.80;99.90
15676;DHT22;7938;47.666;9.434;2023-03-23T07:49:44;13.20;99.90
15676;DHT22;7938;47.666;9.434;2023-03-23T07:52:11;13.40;99.90
15676;DHT22;7938;47.666;9.434;2023-03-23T07:54:40;13.30;99.90
15676;DHT22;7938;47.666;9.434;2023-03-23T07:57:07;13.40;99.90
15676;DHT22;7938;47.666;9.434;2023-03-23T07:59:34;13.70;99.90
15676;DHT22;7938;47.666;9.434;2023-03-23T08:02:01;13.90;99.90
15676;DHT22;7938;47.666;9.434;2023-03-23T08:04:28;14.10;99.80
15676;DHT22;7938;47.666;9.434;2023-03-23T08:06:55;14.30;98.90
15676;DHT22;7938;47.666;9.434;2023-03-23T08:09:23;14.60;99.00
15676;DHT22;7938;47.666;9.434;2023-03-23T08:11:51;14.80;98.20
15676;DHT22;7938;47.666;9.434;2023-03-23T08:14:18;14.80;99.00
15676;DHT22;7938;47.666;9.434;2023-03-23T08:16:45;14.80;98.40
15676;DHT22;7938;47.666;9.434;2023-03-23T08:19:12;14.80;99.10
15676;DHT22;7938;47.666;9.434;2023-03-23T08:21:39;15.00;97.40
15676;DHT22;7938;47.666;9.434;2023-03-23T08:24:06;15.10;98.30
15676;DHT22;7938;47.666;9.434;2023-03-23T08:26:33;14.90;97.70
15676;DHT22;7938;47.666;9.434;2023-03-23T08:29:01;14.90;97.50
15676;DHT22;7938;47.666;9.434;2023-03-23T08:31:29;14.70;97.00
15676;DHT22;7938;47.666;9.434;2023-03-23T08:33:56;14.70;98.00
15676;DHT22;7938;47.666;9.434;2023-03-23T08:36:23;14.80;97.50
15676;DHT22;7938;47.666;9.434;2023-03-23T08:38:50;14.90;97.10
15676;DHT22;7938;47.666;9.434;2023-03-23T08:41:18;14.60;98.10
15676;DHT22;7938;47.666;9.434;2023-03-23T08:43:45;14.60;98.40
15676;DHT22;7938;47.666;9.434;2023-03-23T08:46:14;14.80;98.10
15676;DHT22;7938;47.666;9.434;2023-03-23T08:48:41;14.90;99.00
15676;DHT22;7938;47.666;9.434;2023-03-23T08:51:09;14.80;98.80
15676;DHT22;7938;47.666;9.434;2023-03-23T08:53:36;14.80;98.90
15676;DHT22;7938;47.666;9.434;2023-03-23T08:56:04;14.70;99.20
15676;DHT22;7938;47.666;9.434;2023-03-23T08:58:31;14.80;99.00
15676;DHT22;7938;47.666;9.434;2023-03-23T09:00:59;14.70;98.50
15676;DHT22;7938;47.666;9.434;2023-03-23T09:03:27;14.90;98.40
15676;DHT22;7938;47.666;9.434;2023-03-23T09:05:58;14.90;98.60
15676;DHT22;7938;47.666;9.434;2023-03-23T09:08:26;14.70;98.00
15676;DHT22;7938;47.666;9.434;2023-03-23T09:10:54;15.10;97.70
15676;DHT22;7938;47.666;9.434;2023-03-23T09:13:21;15.10;98.30
15676;DHT22;7938;47.666;9.434;2023-03-23T09:15:48;15.30;98.90
15676;DHT22;7938;47.666;9.434;2023-03-23T09:18:15;15.50;98.30
15676;DHT22;7938;47.666;9.434;2023-03-23T09:20:44;15.20;97.30
15676;DHT22;7938;47.666;9.434;2023-03-23T09:23:11;15.20;97.40
15676;DHT22;7938;47.666;9.434;2023-03-23T09:25:39;15.20;97.30
15676;DHT22;7938;47.666;9.434;2023-03-23T09:28:06;15.30;98.10
15676;DHT22;7938;47.666;9.434;2023-03-23T09:30:34;14.90;99.50
15676;DHT22;7938;47.666;9.434;2023-03-23T09:33:03;14.80;98.80
15676;DHT22;7938;47.666;9.434;2023-03-23T09:35:32;14.70;98.40
15676;DHT22;7938;47.666;9.434;2023-03-23T09:38:02;14.90;99.10
15676;DHT22;7938;47.666;9.434;2023-03-23T09:40:32;15.10;98.70
15676;DHT22;7938;47.666;9.434;2023-03-23T09:46:02;15.20;98.10
15676;DHT22;7938;47.666;9.434;2023-03-23T09:48:37;15.20;97.70
15676;DHT22;7938;47.666;9.434;2023-03-23T09:51:14;15.30;97.40
15676;DHT22;7938;47.666;9.434;2023-03-23T09:53:47;15.30;97.00
15676;DHT22;7938;47.666;9.434;2023-03-23T09:56:16;15.40;97.30
15676;DHT22;7938;47.666;9.434;2023-03-23T09:58:47;15.40;97.00
15676;DHT22;7938;47.666;9.434;2023-03-23T10:01:20;16.00;97.00
15676;DHT22;7938;47.666;9.434;2023-03-23T10:03:49;16.10;97.00
15676;DHT22;7938;47.666;9.434;2023-03-23T10:06:19;15.90;97.70
15676;DHT22;7938;47.666;9.434;2023-03-23T10:08:49;16.20;96.50
15676;DHT22;7938;47.666;9.434;2023-03-23T10:11:32;16.40;96.10
15676;DHT22;7938;47.666;9.434;2023-03-23T10:14:09;16.50;95.30
15676;DHT22;7938;47.666;9.434;2023-03-23T10:16:42;16.50;95.60
15676;DHT22;7938;47.666;9.434;2023-03-23T10:19:13;16.80;94.70
15676;DHT22;7938;47.666;9.434;2023-03-23T10:21:46;16.70;93.80
15676;DHT22;7938;47.666;9.434;2023-03-23T10:24:17;16.40;95.90
15676;DHT22;7938;47.666;9.434;2023-03-23T10:26:54;16.60;94.60
15676;DHT22;7938;47.666;9.434;2023-03-23T10:29:26;16.70;95.60
15676;DHT22;7938;47.666;9.434;2023-03-23T10:31:58;16.80;95.20
15676;DHT22;7938;47.666;9.434;2023-03-23T10:34:30;17.10;94.90
15676;DHT22;7938;47.666;9.434;2023-03-23T10:37:02;17.30;94.10
15676;DHT22;7938;47.666;9.434;2023-03-23T10:39:40;17.70;93.30
15676;DHT22;7938;47.666;9.434;2023-03-23T10:42:08;17.80;93.70
15676;DHT22;7938;47.666;9.434;2023-03-23T10:44:35;18.00;93.50
15676;DHT22;7938;47.666;9.434;2023-03-23T10:47:05;18.40;92.10
15676;DHT22;7938;47.666;9.434;2023-03-23T10:49:36;18.50;91.60
15676;DHT22;7938;47.666;9.434;2023-03-23T10:52:13;18.70;90.80
15676;DHT22;7938;47.666;9.434;2023-03-23T10:54:51;18.70;91.40
15676;DHT22;7938;47.666;9.434;2023-03-23T10:57:24;18.90;91.20
15676;DHT22;7938;47.666;9.434;2023-03-23T10:59:58;19.10;90.20
15676;DHT22;7938;47.666;9.434;2023-03-23T11:02:27;19.00;90.00
15676;DHT22;7938;47.666;9.434;2023-03-23T11:04:58;19.00;90.10
15676;DHT22;7938;47.666;9.434;2023-03-23T11:07:29;18.70;90.40
15676;DHT22;7938;47.666;9.434;2023-03-23T11:10:06;18.50;91.40
15676;DHT22;7938;47.666;9.434;2023-03-23T11:12:34;18.30;90.80
15676;DHT22;7938;47.666;9.434;2023-03-23T11:15:25;17.90;92.10
15676;DHT22;7938;47.666;9.434;2023-03-23T11:17:58;17.50;91.40
15676;DHT22;7938;47.666;9.434;2023-03-23T11:20:25;19.30;92.40
15676;DHT22;7938;47.666;9.434;2023-03-23T11:22:54;19.10;91.70
15676;DHT22;7938;47.666;9.434;2023-03-23T11:25:23;17.40;92.40
15676;DHT22;7938;47.666;9.434;2023-03-23T11:27:52;17.40;92.20
15676;DHT22;7938;47.666;9.434;2023-03-23T11:32:49;17.30;92.10
15676;DHT22;7938;47.666;9.434;2023-03-23T11:35:20;17.20;93.00
15676;DHT22;7938;47.666;9.434;2023-03-23T11:37:49;17.30;92.00
15676;DHT22;7938;47.666;9.434;2023-03-23T11:40:19;17.20;92.20
15676;DHT22;7938;47.666;9.434;2023-03-23T11:42:49;17.00;91.70
15676;DHT22;7938;47.666;9.434;2023-03-23T11:45:21;16.80;92.90
15676;DHT22;7938;47.666;9.434;2023-03-23T11:47:58;16.60;92.90
15676;DHT22;7938;47.666;9.434;2023-03-23T11:50:27;17.20;92.50
15676;DHT22;7938;47.666;9.434;2023-03-23T11:53:02;17.10;91.90
15676;DHT22;7938;47.666;9.434;2023-03-23T11:55:49;17.40;92.50
15676;DHT22;7938;47.666;9.434;2023-03-23T11:58:20;17.50;93.00
15676;DHT22;7938;47.666;9.434;2023-03-23T12:00:51;18.10;91.20
15676;DHT22;7938;47.666;9.434;2023-03-23T12:03:37;18.10;92.10
15676;DHT22;7938;47.666;9.434;2023-03-23T12:06:08;18.40;91.30
15676;DHT22;7938;47.666;9.434;2023-03-23T12:08:51;18.80;90.10
15676;DHT22;7938;47.666;9.434;2023-03-23T12:11:27;19.00;88.90
15676;DHT22;7938;47.666;9.434;2023-03-23T12:14:11;19.00;89.00
15676;DHT22;7938;47.666;9.434;2023-03-23T12:16:50;19.30;87.90
15676;DHT22;7938;47.666;9.434;2023-03-23T12:19:27;19.20;88.50
15676;DHT22;7938;47.666;9.434;2023-03-23T12:22:01;19.80;85.20
15676;DHT22;7938;47.666;9.434;2023-03-23T12:24:40;19.70;87.50
15676;DHT22;7938;47.666;9.434;2023-03-23T12:27:15;19.50;86.10
15676;DHT22;7938;47.666;9.434;2023-03-23T12:30:08;19.40;85.20
15676;DHT22;7938;47.666;9.434;2023-03-23T12:32:48;19.20;87.60
15676;DHT22;7938;47.666;9.434;2023-03-23T12:35:35;19.10;88.50
15676;DHT22;7938;47.666;9.434;2023-03-23T12:38:15;19.00;89.50
15676;DHT22;7938;47.666;9.434;2023-03-23T12:40:51;19.50;85.70
15676;DHT22;7938;47.666;9.434;2023-03-23T12:43:28;19.60;85.40
15676;DHT22;7938;47.666;9.434;2023-03-23T12:46:16;19.90;84.40
15676;DHT22;7938;47.666;9.434;2023-03-23T12:48:52;19.60;87.20
15676;DHT22;7938;47.666;9.434;2023-03-23T12:51:24;19.90;88.50
15676;DHT22;7938;47.666;9.434;2023-03-23T12:53:58;19.50;86.00
15676;DHT22;7938;47.666;9.434;2023-03-23T12:56:31;19.80;86.60
15676;DHT22;7938;47.666;9.434;2023-03-23T12:59:06;19.90;85.80
15676;DHT22;7938;47.666;9.434;2023-03-23T13:01:39;19.80;84.00
15676;DHT22;7938;47.666;9.434;2023-03-23T13:04:10;19.80;85.70
15676;DHT22;7938;47.666;9.434;2023-03-23T13:06:39;19.80;85.20
15676;DHT22;7938;47.666;9.434;2023-03-23T13:09:13;19.80;86.90
15676;DHT22;7938;47.666;9.434;2023-03-23T13:11:43;19.50;85.50
15676;DHT22;7938;47.666;9.434;2023-03-23T13:14:37;19.20;86.40
15676;DHT22;7938;47.666;9.434;2023-03-23T13:17:15;19.20;86.60
15676;DHT22;7938;47.666;9.434;2023-03-23T13:23:02;19.20;86.20
15676;DHT22;7938;47.666;9.434;2023-03-23T13:25:53;18.90;86.40
15676;DHT22;7938;47.666;9.434;2023-03-23T13:28:24;18.70;88.60
15676;DHT22;7938;47.666;9.434;2023-03-23T13:31:02;18.60;88.10
15676;DHT22;7938;47.666;9.434;2023-03-23T13:33:33;18.60;88.90
15676;DHT22;7938;47.666;9.434;2023-03-23T13:36:08;18.70;89.60
15676;DHT22;7938;47.666;9.434;2023-03-23T13:38:36;18.50;88.30
15676;DHT22;7938;47.666;9.434;2023-03-23T13:41:09;18.40;87.60
15676;DHT22;7938;47.666;9.434;2023-03-23T13:43:38;18.40;87.80
15676;DHT22;7938;47.666;9.434;2023-03-23T13:46:23;18.10;88.40
15676;DHT22;7938;47.666;9.434;2023-03-23T13:51:58;17.60;88.90
15676;DHT22;7938;47.666;9.434;2023-03-23T13:54:30;17.50;89.80
15676;DHT22;7938;47.666;9.434;2023-03-23T13:56:59;17.20;90.00
15676;DHT22;7938;47.666;9.434;2023-03-23T13:59:35;17.30;90.60
15676;DHT22;7938;47.666;9.434;2023-03-23T14:02:31;17.50;90.10
15676;DHT22;7938;47.666;9.434;2023-03-23T14:05:30;17.60;90.50
15676;DHT22;7938;47.666;9.434;2023-03-23T14:07:58;17.70;90.80
15676;DHT22;7938;47.666;9.434;2023-03-23T14:10:33;17.90;91.50
15676;DHT22;7938;47.666;9.434;2023-03-23T14:13:01;17.70;90.50
15676;DHT22;7938;47.666;9.434;2023-03-23T14:15:30;17.70;90.80
15676;DHT22;7938;47.666;9.434;2023-03-23T14:18:01;18.00;90.90
15676;DHT22;7938;47.666;9.434;2023-03-23T14:20:33;17.40;92.50
15676;DHT22;7938;47.666;9.434;2023-03-23T14:23:01;17.00;91.10
15676;DHT22;7938;47.666;9.434;2023-03-23T14:25:31;17.00;91.40
15676;DHT22;7938;47.666;9.434;2023-03-23T14:27:58;16.90;91.90
15676;DHT22;7938;47.666;9.434;2023-03-23T14:30:33;16.80;95.80
15676;DHT22;7938;47.666;9.434;2023-03-23T14:33:05;16.60;94.40
15676;DHT22;7938;47.666;9.434;2023-03-23T14:35:37;16.10;96.00
15676;DHT22;7938;47.666;9.434;2023-03-23T14:38:04;15.60;97.30
15676;DHT22;7938;47.666;9.434;2023-03-23T14:40:36;15.20;98.60
15676;DHT22;7938;47.666;9.434;2023-03-23T14:43:03;15.10;97.00
15676;DHT22;7938;47.666;9.434;2023-03-23T14:45:31;15.10;97.50
15676;DHT22;7938;47.666;9.434;2023-03-23T14:48:01;15.20;97.00
15676;DHT22;7938;47.666;9.434;2023-03-23T14:50:30;15.10;98.10
15676;DHT22;7938;47.666;9.434;2023-03-23T14:53:02;15.20;96.70
15676;DHT22;7938;47.666;9.434;2023-03-23T14:55:31;15.20;97.00
15676;DHT22;7938;47.666;9.434;2023-03-23T14:58:06;15.20;97.10
15676;DHT22;7938;47.666;9.434;2023-03-23T15:00:36;15.00;98.30
15676;DHT22;7938;47.666;9.434;2023-03-23T15:03:07;15.10;96.80
15676;DHT22;7938;47.666;9.434;2023-03-23T15:05:40;15.10;97.50
15676;DHT22;7938;47.666;9.434;2023-03-23T15:08:13;15.00;97.40
15676;DHT22;7938;47.666;9.434;2023-03-23T15:10:41;15.10;99.80
15676;DHT22;7938;47.666;9.434;2023-03-23T15:13:11;14.90;97.90
15676;DHT22;7938;47.666;9.434;2023-03-23T15:15:38;15.00;97.10
15676;DHT22;7938;47.666;9.434;2023-03-23T15:18:25;15.00;97.30
15676;DHT22;7938;47.666;9.434;2023-03-23T15:20:52;14.90;97.60
15676;DHT22;7938;47.666;9.434;2023-03-23T15:23:27;14.90;98.30
15676;DHT22;7938;47.666;9.434;2023-03-23T15:25:56;14.90;97.40
15676;DHT22;7938;47.666;9.434;2023-03-23T15:35:54;14.70;97.30
15676;DHT22;7938;47.666;9.434;2023-03-23T15:38:25;14.70;97.80
15676;DHT22;7938;47.666;9.434;2023-03-23T15:40:54;14.80;97.80
15676;DHT22;7938;47.666;9.434;2023-03-23T15:43:22;14.80;97.70
15676;DHT22;7938;47.666;9.434;2023-03-23T15:45:56;14.80;97.20
15676;DHT22;7938;47.666;9.434;2023-03-23T15:48:26;14.90;97.20
15676;DHT22;7938;47.666;9.434;2023-03-23T15:50:53;15.00;97.00
15676;DHT22;7938;47.666;9.434;2023-03-23T15:53:32;15.10;97.30
15676;DHT22;7938;47.666;9.434;2023-03-23T15:56:01;15.10;96.80
15676;DHT22;7938;47.666;9.434;2023-03-23T15:58:29;15.10;96.90
15676;DHT22;7938;47.666;9.434;2023-03-23T16:00:56;15.20;97.10
15676;DHT22;7938;47.666;9.434;2023-03-23T16:03:28;15.10;97.40
15676;DHT22;7938;47.666;9.434;2023-03-23T16:05:57;15.10;97.30
15676;DHT22;7938;47.666;9.434;2023-03-23T16:08:28;15.10;97.10
15676;DHT22;7938;47.666;9.434;2023-03-23T16:10:56;15.10;96.70
15676;DHT22;7938;47.666;9.434;2023-03-23T16:13:24;15.10;97.00
15676;DHT22;7938;47.666;9.434;2023-03-23T16:15:52;15.20;96.70
15676;DHT22;7938;47.666;9.434;2023-03-23T16:18:21;15.20;96.70
15676;DHT22;7938;47.666;9.434;2023-03-23T16:20:49;15.10;96.60
15676;DHT22;7938;47.666;9.434;2023-03-23T16:23:16;15.10;96.90
15676;DHT22;7938;47.666;9.434;2023-03-23T16:25:43;15.00;97.40
15676;DHT22;7938;47.666;9.434;2023-03-23T16:28:13;15.00;97.20
15676;DHT22;7938;47.666;9.434;2023-03-23T16:30:41;15.00;98.50
15676;DHT22;7938;47.666;9.434;2023-03-23T16:33:08;14.90;97.10
15676;DHT22;7938;47.666;9.434;2023-03-23T16:35:35;14.90;97.20
15676;DHT22;7938;47.666;9.434;2023-03-23T16:38:03;14.90;97.40
15676;DHT22;7938;47.666;9.434;2023-03-23T16:40:30;14.60;98.30
15676;DHT22;7938;47.666;9.434;2023-03-23T16:42:58;14.90;97.30
15676;DHT22;7938;47.666;9.434;2023-03-23T16:45:26;15.00;96.50
15676;DHT22;7938;47.666;9.434;2023-03-23T16:47:53;14.90;96.60
15676;DHT22;7938;47.666;9.434;2023-03-23T16:50:26;14.60;98.40
15676;DHT22;7938;47.666;9.434;2023-03-23T16:52:53;14.90;97.30
15676;DHT22;7938;47.666;9.434;2023-03-23T16:55:21;14.90;96.60
15676;DHT22;7938;47.666;9.434;2023-03-23T16:57:50;14.80;97.10
15676;DHT22;7938;47.666;9.434;2023-03-23T17:00:18;14.70;97.30
15676;DHT22;7938;47.666;9.434;2023-03-23T17:02:49;14.50;97.10
15676;DHT22;7938;47.666;9.434;2023-03-23T17:05:17;14.40;97.40
15676;DHT22;7938;47.666;9.434;2023-03-23T17:10:12;14.10;98.20
15676;DHT22;7938;47.666;9.434;2023-03-23T17:12:40;14.20;97.80
15676;DHT22;7938;47.666;9.434;2023-03-23T17:15:08;14.10;98.10
15676;DHT22;7938;47.666;9.434;2023-03-23T17:17:35;14.00;98.10
15676;DHT22;7938;47.666;9.434;2023-03-23T17:20:05;13.90;98.40
15676;DHT22;7938;47.666;9.434;2023-03-23T17:22:32;13.70;98.20
15676;DHT22;7938;47.666;9.434;2023-03-23T17:24:59;13.70;98.80
15676;DHT22;7938;47.666;9.434;2023-03-23T17:27:26;13.60;98.80
15676;DHT22;7938;47.666;9.434;2023-03-23T17:29:54;13.60;98.70
15676;DHT22;7938;47.666;9.434;2023-03-23T17:32:22;13.50;98.90
15676;DHT22;7938;47.666;9.434;2023-03-23T17:34:50;13.50;99.10
15676;DHT22;7938;47.666;9.434;2023-03-23T17:37:18;13.50;99.50
15676;DHT22;7938;47.666;9.434;2023-03-23T17:39:45;13.40;99.30
15676;DHT22;7938;47.666;9.434;2023-03-23T17:42:13;13.30;98.90
15676;DHT22;7938;47.666;9.434;2023-03-23T17:44:39;13.30;99.50
15676;DHT22;7938;47.666;9.434;2023-03-23T17:47:07;13.20;98.90
15676;DHT22;7938;47.666;9.434;2023-03-23T17:49:34;13.20;99.30
15676;DHT22;7938;47.666;9.434;2023-03-23T17:52:01;13.20;99.50
15676;DHT22;7938;47.666;9.434;2023-03-23T17:54:29;13.20;99.40
15676;DHT22;7938;47.666;9.434;2023-03-23T17:56:56;13.20;99.20
15676;DHT22;7938;47.666;9.434;2023-03-23T17:59:25;13.20;99.20
15676;DHT22;7938;47.666;9.434;2023-03-23T18:01:53;13.20;99.00
15676;DHT22;7938;47.666;9.434;2023-03-23T18:04:20;13.20;99.70
15676;DHT22;7938;47.666;9.434;2023-03-23T18:06:48;11.40;98.40
15676;DHT22;7938;47.666;9.434;2023-03-23T18:09:15;13.20;99.80
15676;DHT22;7938;47.666;9.434;2023-03-23T18:11:43;13.20;99.40
15676;DHT22;7938;47.666;9.434;2023-03-23T18:14:10;13.20;99.50
15676;DHT22;7938;47.666;9.434;2023-03-23T18:16:37;13.20;99.60
15676;DHT22;7938;47.666;9.434;2023-03-23T18:19:04;13.20;99.70
15676;DHT22;7938;47.666;9.434;2023-03-23T18:21:32;13.20;99.10
15676;DHT22;7938;47.666;9.434;2023-03-23T18:23:59;13.20;99.30
15676;DHT22;7938;47.666;9.434;2023-03-23T18:26:26;14.30;99.90
15676;DHT22;7938;47.666;9.434;2023-03-23T18:28:55;13.20;99.30
15676;DHT22;7938;47.666;9.434;2023-03-23T18:31:22;13.10;99.10
15676;DHT22;7938;47.666;9.434;2023-03-23T18:33:50;13.10;99.70
15676;DHT22;7938;47.666;9.434;2023-03-23T18:36:23;13.10;99.50
15676;DHT22;7938;47.666;9.434;2023-03-23T18:38:54;13.10;99.60
15676;DHT22;7938;47.666;9.434;2023-03-23T18:41:22;13.00;99.70
15676;DHT22;7938;47.666;9.434;2023-03-23T18:43:49;13.00;99.70
15676;DHT22;7938;47.666;9.434;2023-03-23T18:46:17;12.90;99.90
15676;DHT22;7938;47.666;9.434;2023-03-23T18:48:44;13.70;99.90
15676;DHT22;7938;47.666;9.434;2023-03-23T18:51:11;12.90;99.50
15676;DHT22;7938;47.666;9.434;2023-03-23T18:53:38;12.80;99.60
15676;DHT22;7938;47.666;9.434;2023-03-23T18:56:07;12.90;99.70
15676;DHT22;7938;47.666;9.434;2023-03-23T18:58:34;12.90;99.40
15676;DHT22;7938;47.666;9.434;2023-03-23T19:01:03;12.90;99.20
15676;DHT22;7938;47.666;9.434;2023-03-23T19:03:33;12.90;99.40
15676;DHT22;7938;47.666;9.434;2023-03-23T19:06:00;13.00;99.50
15676;DHT22;7938;47.666;9.434;2023-03-23T19:08:28;13.00;99.10
15676;DHT22;7938;47.666;9.434;2023-03-23T19:10:56;13.00;98.90
15676;DHT22;7938;47.666;9.434;2023-03-23T19:13:24;13.00;99.30
15676;DHT22;7938;47.666;9.434;2023-03-23T19:15:51;13.00;99.10
15676;DHT22;7938;47.666;9.434;2023-03-23T19:18:19;13.00;99.00
15676;DHT22;7938;47.666;9.434;2023-03-23T19:20:47;13.00;99.00
15676;DHT22;7938;47.666;9.434;2023-03-23T19:23:16;12.90;99.20
15676;DHT22;7938;47.666;9.434;2023-03-23T19:25:43;12.80;99.30
15676;DHT22;7938;47.666;9.434;2023-03-23T19:28:11;12.40;99.20
15676;DHT22;7938;47.666;9.434;2023-03-23T19:30:43;13.00;99.90
15676;DHT22;7938;47.666;9.434;2023-03-23T19:33:11;12.70;99.60
15676;DHT22;7938;47.666;9.434;2023-03-23T19:35:38;12.70;99.50
15676;DHT22;7938;47.666;9.434;2023-03-23T19:38:07;12.70;99.60
15676;DHT22;7938;47.666;9.434;2023-03-23T19:40:34;12.70;99.90
15676;DHT22;7938;47.666;9.434;2023-03-23T19:43:02;12.60;99.60
15676;DHT22;7938;47.666;9.434;2023-03-23T19:45:30;12.60;99.60
15676;DHT22;7938;47.666;9.434;2023-03-23T19:47:57;12.50;99.30
15676;DHT22;7938;47.666;9.434;2023-03-23T19:52:52;12.50;99.50
15676;DHT22;7938;47.666;9.434;2023-03-23T19:55:20;12.50;99.90
15676;DHT22;7938;47.666;9.434;2023-03-23T19:57:47;12.60;99.60
15676;DHT22;7938;47.666;9.434;2023-03-23T20:00:16;12.60;99.50
15676;DHT22;7938;47.666;9.434;2023-03-23T20:02:43;12.60;99.60
15676;DHT22;7938;47.666;9.434;2023-03-23T20:05:10;12.60;99.80
15676;DHT22;7938;47.666;9.434;2023-03-23T20:07:37;12.60;99.90
15676;DHT22;7938;47.666;9.434;2023-03-23T20:10:05;12.70;99.80
15676;DHT22;7938;47.666;9.434;2023-03-23T20:12:34;12.50;99.70
15676;DHT22;7938;47.666;9.434;2023-03-23T20:15:01;12.50;99.90
15676;DHT22;7938;47.666;9.434;2023-03-23T20:17:28;12.50;99.90
15676;DHT22;7938;47.666;9.434;2023-03-23T20:19:55;12.10;99.90
15676;DHT22;7938;47.666;9.434;2023-03-23T20:22:22;12.30;99.80
15676;DHT22;7938;47.666;9.434;2023-03-23T20:24:49;12.30;99.90
15676;DHT22;7938;47.666;9.434;2023-03-23T20:27:17;12.20;99.90
15676;DHT22;7938;47.666;9.434;2023-03-23T20:29:45;11.60;99.90
15676;DHT22;7938;47.666;9.434;2023-03-23T20:32:12;12.00;99.90
15676;DHT22;7938;47.666;9.434;2023-03-23T20:34:39;12.00;99.90
15676;DHT22;7938;47.666;9.434;2023-03-23T20:37:06;12.00;99.90
15676;DHT22;7938;47.666;9.434;2023-03-23T20:39:35;12.00;99.90
15676;DHT22;7938;47.666;9.434;2023-03-23T20:42:02;11.90;99.90
15676;DHT22;7938;47.666;9.434;2023-03-23T20:44:31;11.80;99.90
15676;DHT22;7938;47.666;9.434;2023-03-23T20:47:01;11.80;99.90
15676;DHT22;7938;47.666;9.434;2023-03-23T20:49:29;11.40;99.90
15676;DHT22;7938;47.666;9.434;2023-03-23T20:51:56;11.80;99.90
15676;DHT22;7938;47.666;9.434;2023-03-23T20:54:25;11.70;99.90
15676;DHT22;7938;47.666;9.434;2023-03-23T20:56:52;11.70;99.90
15676;DHT22;7938;47.666;9.434;2023-03-23T20:59:20;11.60;99.90
15676;DHT22;7938;47.666;9.434;2023-03-23T21:01:47;11.60;99.90
15676;DHT22;7938;47.666;9.434;2023-03-23T21:04:19;11.60;99.90
15676;DHT22;7938;47.666;9.434;2023-03-23T21:06:48;12.80;99.90
15676;DHT22;7938;47.666;9.434;2023-03-23T21:09:17;11.60;99.90
15676;DHT22;7938;47.666;9.434;2023-03-23T21:11:45;11.50;99.90
15676;DHT22;7938;47.666;9.434;2023-03-23T21:14:13;11.50;99.90
15676;DHT22;7938;47.666;9.434;2023-03-23T21:16:41;11.50;99.90
15676;DHT22;7938;47.666;9.434;2023-03-23T21:19:08;11.40;99.90
15676;DHT22;7938;47.666;9.434;2023-03-23T21:21:37;11.30;99.90
15676;DHT22;7938;47.666;9.434;2023-03-23T21:24:08;11.30;99.90
15676;DHT22;7938;47.666;9.434;2023-03-23T21:26:36;11.30;99.90
15676;DHT22;7938;47.666;9.434;2023-03-23T21:29:04;11.20;99.90
15676;DHT22;7938;47.666;9.434;2023-03-23T21:31:35;11.10;99.90
15676;DHT22;7938;47.666;9.434;2023-03-23T21:34:03;11.10;99.90